Time;durP1;ratioP1;P1;durP2;ratioP2;P2;SDS_P1;SDS_P2;PMS_P1;PMS_P2;Temp;Humidity;BMP_temperature;BMP_pressure;BME280_temperature;BME280_humidity;BME280_pressure;Samples;Min_cycle;Max_cycle;Signal;HPM_P1;HPM_P2
2023/01/02 00:00:29;;;;;;;11.10;3.97;;;;;;;10.89;83.75;100072.34;10413654;28;20107;-78
2023/01/02 00:05:32;;;;;;;8.65;3.58;;;;;;;10.90;83.19;100069.53;10413951;28;20056;-77
2023/01/02 00:10:35;;;;;;;13.60;3.83;;;;;;;11.05;82.51;100051.19;10413934;28;20076;-78
2023/01/02 00:15:39;;;;;;;16.15;4.40;;;;;;;11.02;81.70;100048.78;10413597;28;20061;-79
2023/01/02 00:20:42;;;;;;;14.23;4.07;;;;;;;11.04;82.40;100054.88;10392562;28;20053;-79
2023/01/02 00:25:44;;;;;;;14.05;4.03;;;;;;;10.99;83.01;100039.16;10390738;28;20112;-78
2023/01/02 00:30:49;;;;;;;12.00;4.57;;;;;;;11.03;83.11;100015.56;10392121;28;20069;-79
2023/01/02 00:35:52;;;;;;;9.15;3.70;;;;;;;11.10;81.27;100003.25;10403323;28;20049;-78
2023/01/02 00:40:55;;;;;;;10.13;4.10;;;;;;;11.21;80.33;100008.56;10408554;28;20046;-78
2023/01/02 00:45:59;;;;;;;9.57;3.92;;;;;;;11.01;78.94;100001.41;10384948;28;20049;-77
2023/01/02 00:51:09;;;;;;;12.05;3.70;;;;;;;11.24;79.76;100000.25;10413561;28;20092;-77
2023/01/02 00:56:12;;;;;;;8.73;4.03;;;;;;;11.36;77.66;100011.72;10417816;28;20066;-77
2023/01/02 01:01:16;;;;;;;10.93;3.58;;;;;;;11.65;77.15;100009.06;10383020;28;20054;-78
2023/01/02 01:06:20;;;;;;;13.15;3.20;;;;;;;11.69;74.90;100005.09;10396687;28;20042;-78
2023/01/02 01:11:23;;;;;;;10.82;4.15;;;;;;;11.82;74.91;100001.28;10401838;28;20050;-79
2023/01/02 01:16:27;;;;;;;10.48;3.90;;;;;;;11.98;73.84;99992.63;10392242;28;20042;-77
2023/01/02 01:21:30;;;;;;;10.23;3.42;;;;;;;12.11;73.48;99990.50;10407840;28;20492;-77
2023/01/02 01:26:33;;;;;;;11.13;3.03;;;;;;;12.02;73.51;100005.66;10383719;28;20041;-76
2023/01/02 01:31:37;;;;;;;14.45;3.22;;;;;;;11.80;75.38;100004.13;10384977;28;20067;-77
2023/01/02 01:36:40;;;;;;;10.85;3.25;;;;;;;11.82;75.30;100001.28;10379624;28;20439;-77
2023/01/02 01:41:43;;;;;;;10.55;3.25;;;;;;;11.91;73.83;99995.06;10407174;28;20037;-77
2023/01/02 01:46:47;;;;;;;10.88;3.10;;;;;;;11.84;73.41;99981.31;10388619;28;20470;-78
2023/01/02 01:51:52;;;;;;;13.02;3.25;;;;;;;12.10;72.98;99986.13;10384131;28;20046;-77
2023/01/02 01:56:59;;;;;;;8.57;3.42;;;;;;;12.13;71.77;99978.59;10405851;28;20052;-77
2023/01/02 02:02:03;;;;;;;11.40;3.63;;;;;;;12.25;71.89;99967.66;10380221;28;20080;-79
2023/01/02 02:07:07;;;;;;;6.40;2.45;;;;;;;12.10;71.31;99994.19;10376857;28;20033;-78
2023/01/02 02:12:11;;;;;;;10.77;3.15;;;;;;;12.33;72.34;99976.72;10375863;28;20128;-78
2023/01/02 02:17:23;;;;;;;7.05;2.95;;;;;;;12.20;71.44;99976.16;10375385;28;20419;-77
2023/01/02 02:22:49;;;;;;;6.35;3.15;;;;;;;12.22;71.37;99976.88;10374547;28;20104;-77
2023/01/02 02:28:24;;;;;;;9.40;3.33;;;;;;;12.20;71.38;99980.69;10374228;28;20060;-78
2023/01/02 02:33:40;;;;;;;10.35;3.72;;;;;;;11.77;79.52;99972.13;10374528;28;20144;-79
2023/01/02 02:38:57;;;;;;;6.93;2.45;;;;;;;11.35;77.54;99968.81;10404171;28;20057;-79
2023/01/02 02:44:14;;;;;;;6.03;2.00;;;;;;;11.79;75.21;99983.56;10407642;28;20053;-78
2023/01/02 02:49:32;;;;;;;14.93;3.25;;;;;;;12.12;74.90;99976.91;10387720;28;20048;-79
2023/01/02 02:54:40;;;;;;;7.10;3.25;;;;;;;11.71;76.42;99975.34;10390033;28;20092;-79
2023/01/02 02:59:43;;;;;;;10.80;3.30;;;;;;;11.99;75.85;99970.97;10385282;28;20073;-79
2023/01/02 03:04:50;;;;;;;12.90;3.83;;;;;;;11.95;76.04;99972.22;10372441;28;20077;-79
2023/01/02 03:10:06;;;;;;;11.82;3.10;;;;;;;11.91;76.78;99978.91;10390934;28;20519;-79
2023/01/02 03:15:16;;;;;;;10.65;2.80;;;;;;;11.78;77.40;99975.66;10379807;28;20045;-79
2023/01/02 03:20:24;;;;;;;10.63;3.35;;;;;;;11.72;79.03;99975.22;10372089;28;20045;-79
2023/01/02 03:25:28;;;;;;;12.13;3.38;;;;;;;11.58;79.58;99972.97;10398569;28;20467;-79
2023/01/02 03:30:37;;;;;;;9.25;3.20;;;;;;;11.61;78.53;99977.22;10371630;28;20121;-79
2023/01/02 03:35:45;;;;;;;13.55;2.90;;;;;;;11.56;77.89;99958.78;10371682;28;20060;-79
2023/01/02 03:40:52;;;;;;;10.93;3.15;;;;;;;11.73;77.04;99955.38;10371087;28;20121;-79
2023/01/02 03:46:04;;;;;;;11.55;3.10;;;;;;;11.63;76.01;99959.94;10391391;28;20045;-79
2023/01/02 03:51:09;;;;;;;11.68;3.95;;;;;;;11.54;75.46;99966.16;10373070;28;20570;-77
2023/01/02 03:56:20;;;;;;;6.40;3.15;;;;;;;11.72;75.50;99969.00;10379865;28;20069;-78
2023/01/02 04:01:34;;;;;;;7.90;2.78;;;;;;;11.82;74.99;99963.59;10431866;28;20046;-78
2023/01/02 04:06:43;;;;;;;12.57;2.83;;;;;;;11.82;80.98;99960.91;10397938;28;20046;-79
2023/01/02 04:11:52;;;;;;;9.88;3.40;;;;;;;11.99;76.17;99933.28;10399274;28;20080;-78
2023/01/02 04:16:58;;;;;;;9.95;3.00;;;;;;;11.78;76.00;99938.81;10401387;28;20048;-78
2023/01/02 04:22:07;;;;;;;10.95;3.83;;;;;;;11.75;75.65;99944.50;10411067;28;20060;-78
2023/01/02 04:27:14;;;;;;;7.75;3.03;;;;;;;11.92;74.69;99956.38;10389824;28;20038;-78
2023/01/02 04:32:22;;;;;;;10.82;3.45;;;;;;;11.98;74.50;99971.09;10394411;28;20050;-78
2023/01/02 04:37:29;;;;;;;10.10;3.08;;;;;;;11.95;75.25;99978.47;10424098;28;20049;-78
2023/01/02 04:42:32;;;;;;;5.70;2.22;;;;;;;11.64;75.45;99991.22;10400323;28;20050;-77
2023/01/02 04:47:34;;;;;;;10.07;3.45;;;;;;;11.49;78.02;99989.91;10418898;28;20044;-77
2023/01/02 04:52:39;;;;;;;8.23;2.55;;;;;;;10.90;80.75;99990.75;10446336;28;20038;-76
2023/01/02 04:57:41;;;;;;;11.35;3.30;;;;;;;10.80;83.10;99972.75;10439189;28;20041;-77
2023/01/02 05:02:44;;;;;;;8.55;3.65;;;;;;;10.73;84.43;99981.50;10450671;28;20029;-78
2023/01/02 05:07:49;;;;;;;11.00;3.40;;;;;;;10.99;84.57;99974.66;10447907;28;20081;-78
2023/01/02 05:12:51;;;;;;;15.18;4.38;;;;;;;10.66;86.18;100002.66;10451405;28;20048;-78
2023/01/02 05:17:56;;;;;;;8.10;3.63;;;;;;;10.59;86.55;100006.91;10434331;28;20053;-78
2023/01/02 05:28:21;;;;;;;15.98;4.40;;;;;;;10.83;86.76;99985.94;10418591;28;20054;-78
2023/01/02 05:33:24;;;;;;;10.30;3.97;;;;;;;10.74;86.78;99980.50;10408670;28;20046;-78
2023/01/02 05:38:30;;;;;;;11.50;5.13;;;;;;;10.78;86.06;99977.44;10399749;28;20061;-79
2023/01/02 05:43:35;;;;;;;9.85;3.97;;;;;;;10.80;84.71;99986.19;10407541;28;20041;-79
2023/01/02 05:48:38;;;;;;;10.25;3.85;;;;;;;10.88;83.96;99987.34;10451020;28;20129;-76
2023/01/02 05:53:42;;;;;;;17.45;4.22;;;;;;;11.10;81.92;99999.72;10444955;28;20109;-79
2023/01/02 05:58:47;;;;;;;11.25;3.70;;;;;;;11.15;79.99;99992.97;10404668;28;20662;-80
2023/01/02 06:03:52;;;;;;;9.00;3.13;;;;;;;11.23;78.42;100003.06;10391051;28;20046;-79
2023/01/02 06:08:57;;;;;;;10.50;3.20;;;;;;;11.39;76.49;100002.53;10399888;28;20048;-79
2023/01/02 06:14:00;;;;;;;9.02;3.33;;;;;;;11.64;74.73;99993.91;10420987;28;20052;-79
2023/01/02 06:19:04;;;;;;;8.75;2.75;;;;;;;11.81;73.41;100019.25;10399976;28;20038;-80
2023/01/02 06:24:08;;;;;;;14.30;3.38;;;;;;;11.71;72.19;99999.56;10403160;28;20076;-79
2023/01/02 06:29:11;;;;;;;6.25;3.08;;;;;;;11.86;71.32;99994.63;10429978;28;20050;-79
2023/01/02 06:34:16;;;;;;;13.10;2.63;;;;;;;11.95;71.20;100005.38;10421425;28;20041;-80
2023/01/02 06:39:21;;;;;;;8.35;2.95;;;;;;;11.84;71.19;99999.28;10404679;28;20052;-79
2023/01/02 06:44:23;;;;;;;7.45;2.20;;;;;;;11.58;70.86;100017.84;10399606;28;20073;-79
2023/01/02 06:49:26;;;;;;;13.20;2.83;;;;;;;11.69;70.61;100015.03;10418147;28;20048;-79
2023/01/02 06:54:30;;;;;;;;;;;;;;;11.86;71.26;100019.69;10397287;28;20129;-78
2023/01/02 06:59:33;;;;;;;3.08;2.28;;;;;;;11.63;70.51;100029.88;10411409;28;19925;-78
2023/01/02 07:04:35;;;;;;;9.00;2.85;;;;;;;11.97;70.58;100040.22;10415508;28;20091;-78
2023/01/02 07:09:40;;;;;;;8.80;2.63;;;;;;;12.20;69.21;100021.94;10390532;28;20038;-78
2023/01/02 07:14:43;;;;;;;12.40;2.65;;;;;;;12.04;69.84;100029.75;10409502;28;20095;-78
2023/01/02 07:19:46;;;;;;;6.47;2.17;;;;;;;12.03;69.33;100028.91;10407368;28;20045;-78
2023/01/02 07:24:57;;;;;;;9.82;2.63;;;;;;;11.76;70.25;100026.06;10388606;28;20687;-78
2023/01/02 07:30:00;;;;;;;7.85;2.22;;;;;;;11.92;69.78;100035.28;10391965;28;20038;-77
2023/01/02 07:35:03;;;;;;;6.97;2.28;;;;;;;11.75;69.77;100048.59;10380928;28;20489;-78
2023/01/02 07:40:08;;;;;;;11.02;3.00;;;;;;;11.99;69.59;100048.19;10387019;28;20037;-77
2023/01/02 07:45:11;;;;;;;10.25;2.45;;;;;;;11.90;69.39;100057.94;10408200;28;20079;-77
2023/01/02 07:50:14;;;;;;;;;;;;;;;11.79;69.19;100058.06;10403816;28;20692;-76
2023/01/02 07:55:18;;;;;;;10.63;2.80;;;;;;;12.10;68.37;100056.13;10395841;28;20016;-76
2023/01/02 08:00:21;;;;;;;6.43;2.30;;;;;;;11.92;68.79;100064.03;10381971;28;20491;-77
2023/01/02 08:05:24;;;;;;;3.97;2.25;;;;;;;12.10;68.32;100061.50;10385027;28;20057;-77
2023/01/02 08:10:28;;;;;;;4.47;1.75;;;;;;;11.87;68.68;100077.91;10387784;28;20034;-76
2023/01/02 08:15:31;;;;;;;12.65;3.28;;;;;;;12.26;67.91;100077.06;10389011;28;20080;-74
2023/01/02 08:20:34;;;;;;;12.63;3.30;;;;;;;11.73;70.16;100089.91;10403350;28;20074;-76
2023/01/02 08:25:38;;;;;;;5.55;2.58;;;;;;;11.87;70.62;100085.97;10382029;28;20162;-76
2023/01/02 08:30:41;;;;;;;3.63;1.98;;;;;;;11.47;71.87;100102.19;10376118;28;20056;-76
2023/01/02 08:35:44;;;;;;;10.70;2.88;;;;;;;11.57;72.59;100105.75;10361715;28;21325;-76
2023/01/02 08:40:48;;;;;;;;;;;;;;;11.59;72.42;100106.47;10336952;28;20414;-76
2023/01/02 08:45:51;;;;;;;9.73;2.92;;;;;;;11.72;72.11;100103.53;10361132;28;19948;-76
2023/01/02 08:50:53;;;;;;;8.73;3.10;;;;;;;11.86;71.34;100113.88;10359049;28;20542;-75
2023/01/02 08:56:20;;;;;;;4.50;1.92;;;;;;;11.93;70.31;100136.56;10346037;28;20055;-76
2023/01/02 09:01:24;;;;;;;9.20;2.80;;;;;;;11.77;70.25;100120.13;10369951;28;20548;-75
2023/01/02 09:06:30;;;;;;;4.57;1.95;;;;;;;11.70;70.81;100141.31;10349581;28;20115;-76
2023/01/02 09:11:38;;;;;;;6.78;2.53;;;;;;;11.23;75.48;100138.31;10355268;28;20042;-75
2023/01/02 09:16:41;;;;;;;5.20;2.22;;;;;;;10.78;78.48;100149.38;10343525;28;20045;-76
2023/01/02 09:21:44;;;;;;;13.27;3.10;;;;;;;10.66;79.37;100173.75;10369056;28;20051;-76
2023/01/02 09:26:48;;;;;;;8.77;3.55;;;;;;;11.14;77.78;100176.78;10335578;28;21183;-76
2023/01/02 09:31:51;;;;;;;5.90;2.97;;;;;;;10.83;79.33;100179.41;10355621;28;20107;-75
2023/01/02 09:36:54;;;;;;;10.38;3.35;;;;;;;10.86;80.27;100201.59;10344291;28;20103;-75
2023/01/02 09:42:03;;;;;;;6.88;3.78;;;;;;;10.63;80.46;100200.88;10352351;28;20188;-76
2023/01/02 09:47:12;;;;;;;12.55;3.33;;;;;;;11.06;78.39;100209.66;10355504;28;20128;-76
2023/01/02 09:52:20;;;;;;;13.27;3.45;;;;;;;11.21;77.94;100214.72;10365910;28;21820;-76
2023/01/02 09:57:35;;;;;;;2.78;1.88;;;;;;;11.08;76.93;100220.28;10342237;28;20054;-76
2023/01/02 10:03:03;;;;;;;8.02;3.05;;;;;;;11.35;77.19;100218.91;10360101;28;20053;-76
2023/01/02 10:08:23;;;;;;;5.50;2.97;;;;;;;11.00;77.93;100231.69;10361517;28;20046;-76
2023/01/02 10:13:41;;;;;;;8.52;2.90;;;;;;;11.16;78.68;100225.91;10351245;28;20053;-75
2023/01/02 10:19:09;;;;;;;9.25;2.78;;;;;;;10.79;81.06;100226.31;10367074;28;20045;-76
2023/01/02 10:24:17;;;;;;;4.40;2.05;;;;;;;10.27;84.84;100256.66;10363083;28;20050;-75
2023/01/02 10:29:29;;;;;;;5.40;2.47;;;;;;;9.87;87.16;100243.75;10355977;28;20056;-75
2023/01/02 10:34:39;;;;;;;3.63;1.93;;;;;;;9.78;86.83;100257.91;10357618;28;20442;-75
2023/01/02 10:39:43;;;;;;;9.30;3.05;;;;;;;10.08;84.53;100252.78;10363524;28;20041;-76
2023/01/02 10:44:48;;;;;;;5.25;2.45;;;;;;;10.29;83.50;100257.38;10348625;28;20044;-76
2023/01/02 10:49:52;;;;;;;5.10;3.00;;;;;;;10.50;84.14;100260.13;10358960;28;20041;-76
2023/01/02 10:54:57;;;;;;;2.60;2.38;;;;;;;9.75;86.85;100261.66;10348962;28;20150;-76
2023/01/02 11:00:07;;;;;;;3.83;1.98;;;;;;;10.15;85.69;100302.31;10351553;28;20420;-77
2023/01/02 11:05:19;;;;;;;1.70;1.60;;;;;;;9.98;84.75;100308.16;10358529;28;20046;-76
2023/01/02 11:10:25;;;;;;;2.97;0.98;;;;;;;9.73;82.65;100322.63;10345371;28;20054;-77
2023/01/02 11:15:33;;;;;;;1.55;0.98;;;;;;;9.50;81.74;100309.19;10347906;28;20129;-76
2023/01/02 11:20:37;;;;;;;1.23;0.88;;;;;;;9.76;80.92;100343.84;10350120;28;20188;-77
2023/01/02 11:25:42;;;;;;;2.45;0.55;;;;;;;9.36;82.17;100340.72;10358259;28;20422;-77
2023/01/02 11:30:49;;;;;;;0.40;0.40;;;;;;;9.46;79.59;100353.31;10374657;28;20128;-77
2023/01/02 11:35:54;;;;;;;0.60;0.52;;;;;;;9.85;77.67;100353.88;10346692;28;20633;-77
2023/01/02 11:41:00;;;;;;;0.77;0.65;;;;;;;9.88;77.47;100363.53;10349828;28;20176;-76
2023/01/02 11:46:09;;;;;;;0.50;0.43;;;;;;;10.44;75.24;100358.16;10371523;28;20053;-77
2023/01/02 11:51:16;;;;;;;0.40;0.40;;;;;;;9.83;75.58;100374.59;10345818;28;20203;-76
2023/01/02 11:56:24;;;;;;;0.47;0.47;;;;;;;9.51;75.17;100393.16;10352463;28;20069;-77
2023/01/02 12:01:36;;;;;;;0.40;0.40;;;;;;;9.32;77.51;100387.50;10344759;28;20057;-77
2023/01/02 12:06:54;;;;;;;0.70;0.63;;;;;;;9.47;76.46;100392.56;10356617;28;20569;-76
2023/01/02 12:12:15;;;;;;;1.00;0.80;;;;;;;9.85;76.90;100407.53;10345107;28;20054;-77
2023/01/02 12:17:24;;;;;;;1.83;1.50;;;;;;;9.80;76.44;100425.81;10335531;28;20124;-77
2023/01/02 12:22:47;;;;;;;2.22;1.88;;;;;;;9.49;77.76;100420.13;10365271;28;20086;-77
2023/01/02 12:27:57;;;;;;;3.83;2.40;;;;;;;9.39;78.85;100437.00;10365023;28;20447;-77
2023/01/02 12:33:31;;;;;;;3.10;2.90;;;;;;;9.85;78.01;100431.69;10371306;28;20041;-77
2023/01/02 12:38:56;;;;;;;3.67;3.38;;;;;;;9.61;77.20;100433.56;10348439;28;20568;-75
2023/01/02 12:44:13;;;;;;;3.33;3.00;;;;;;;9.54;77.93;100434.97;10362724;28;20053;-76
2023/01/02 12:49:35;;;;;;;3.72;3.42;;;;;;;9.42;79.23;100439.47;10371091;28;20192;-76
2023/01/02 12:54:55;;;;;;;2.88;2.67;;;;;;;9.14;79.38;100441.53;10373817;28;20057;-77
2023/01/02 13:00:21;;;;;;;2.20;2.10;;;;;;;9.40;78.97;100455.66;10340090;28;20054;-77
2023/01/02 13:05:29;;;;;;;2.15;2.05;;;;;;;9.14;78.97;100454.91;10372425;28;20528;-76
2023/01/02 13:10:33;;;;;;;2.63;2.42;;;;;;;9.31;78.52;100469.75;10333872;28;20112;-77
2023/01/02 13:15:40;;;;;;;2.47;2.28;;;;;;;9.56;77.52;100479.50;10349082;28;20041;-77
2023/01/02 13:20:53;;;;;;;2.55;2.33;;;;;;;9.22;77.44;100475.81;10355770;28;20049;-77
2023/01/02 13:25:58;;;;;;;;;;;;;;;9.56;77.78;100475.97;10339352;28;20539;-77
2023/01/02 13:31:05;;;;;;;3.15;2.85;;;;;;;9.68;76.40;100493.78;10352205;28;20375;-77
2023/01/02 13:36:38;;;;;;;1.58;1.10;;;;;;;9.13;77.69;100512.16;10361318;28;20053;-76
2023/01/02 13:47:17;;;;;;;2.67;2.47;;;;;;;9.48;76.72;100504.19;10370325;28;20724;-77
2023/01/02 13:52:30;;;;;;;3.28;2.45;;;;;;;9.62;76.20;100507.66;10359966;28;21614;-76
2023/01/02 13:57:33;;;;;;;2.30;2.10;;;;;;;9.42;75.48;100525.25;10367564;28;20041;-76
2023/01/02 14:02:36;;;;;;;1.90;1.40;;;;;;;9.12;74.62;100533.72;10342448;28;20492;-76
2023/01/02 14:07:48;;;;;;;1.63;1.52;;;;;;;9.17;73.99;100528.88;10364442;28;20045;-76
2023/01/02 14:12:54;;;;;;;1.17;1.02;;;;;;;8.90;73.68;100543.31;10364275;28;20045;-77
2023/01/02 14:18:03;;;;;;;2.17;1.60;;;;;;;8.89;74.05;100557.66;10349108;28;20061;-76
2023/01/02 14:23:10;;;;;;;1.80;1.27;;;;;;;8.75;73.88;100561.34;10336978;28;20055;-76
2023/01/02 14:28:21;;;;;;;1.80;1.45;;;;;;;8.58;74.37;100549.13;10354593;28;20052;-76
2023/01/02 14:33:31;;;;;;;1.67;1.58;;;;;;;8.74;74.23;100577.50;10351535;28;20760;-76
2023/01/02 14:38:40;;;;;;;2.15;1.98;;;;;;;8.99;73.54;100585.50;10355176;28;20042;-76
2023/01/02 14:43:44;;;;;;;4.60;1.42;;;;;;;8.49;74.16;100579.22;10353299;28;20754;-76
2023/01/02 14:48:54;;;;;;;2.47;2.17;;;;;;;8.87;73.18;100561.44;10356368;28;20049;-75
2023/01/02 14:54:01;;;;;;;1.95;1.58;;;;;;;8.69;73.05;100568.91;10358451;28;20769;-76
2023/01/02 14:59:07;;;;;;;2.80;2.13;;;;;;;8.70;73.40;100579.53;10364908;28;20046;-76
2023/01/02 15:04:19;;;;;;;3.67;1.90;;;;;;;8.68;73.50;100575.25;10358224;28;20058;-76
2023/01/02 15:09:29;;;;;;;3.65;2.30;;;;;;;8.64;73.49;100576.41;10351980;28;20053;-77
2023/01/02 15:14:32;;;;;;;2.80;2.35;;;;;;;8.53;73.87;100601.25;10344515;28;20065;-75
2023/01/02 15:19:41;;;;;;;5.68;2.45;;;;;;;8.31;74.10;100624.13;10364121;28;20153;-75
2023/01/02 15:24:50;;;;;;;3.30;2.38;;;;;;;8.33;74.86;100624.00;10345003;28;20037;-76
2023/01/02 15:29:55;;;;;;;4.43;2.67;;;;;;;8.47;74.36;100620.44;10351085;28;20074;-76
2023/01/02 15:35:12;;;;;;;2.67;2.45;;;;;;;8.32;74.68;100643.72;10354080;28;20139;-77
2023/01/02 15:40:20;;;;;;;3.90;2.40;;;;;;;8.46;74.26;100632.97;10364816;28;20076;-76
2023/01/02 15:45:23;;;;;;;4.25;3.17;;;;;;;8.30;74.63;100640.28;10342324;28;20522;-76
2023/01/02 15:50:28;;;;;;;2.30;2.20;;;;;;;8.29;74.70;100666.19;10347998;28;20104;-75
2023/01/02 15:55:36;;;;;;;3.72;2.65;;;;;;;8.42;74.69;100676.94;10340167;28;20111;-75
2023/01/02 16:00:39;;;;;;;3.92;2.25;;;;;;;8.66;73.65;100668.22;10353000;28;21762;-76
2023/01/02 16:05:48;;;;;;;4.57;2.47;;;;;;;8.55;73.50;100672.50;10366169;28;20056;-75
2023/01/02 16:10:59;;;;;;;3.25;2.65;;;;;;;8.75;73.36;100662.22;10337649;28;20047;-76
2023/01/02 16:16:04;;;;;;;2.93;1.77;;;;;;;8.89;72.46;100670.19;10368413;28;20108;-76
2023/01/02 16:21:18;;;;;;;3.40;2.00;;;;;;;8.77;73.14;100685.28;10342854;28;20107;-76
2023/01/02 16:26:31;;;;;;;3.50;3.20;;;;;;;8.55;74.22;100691.22;10356643;28;20052;-75
2023/01/02 16:31:51;;;;;;;2.60;2.03;;;;;;;8.48;74.85;100699.81;10360754;28;20710;-77
2023/01/02 16:37:28;;;;;;;19.83;6.60;;;;;;;8.36;75.69;100707.66;10349995;28;20111;-76
2023/01/02 16:42:36;;;;;;;7.78;3.08;;;;;;;8.27;76.72;100708.25;10362403;28;20113;-76
2023/01/02 16:47:42;;;;;;;6.65;3.55;;;;;;;8.45;76.72;100724.03;10364778;28;20081;-77
2023/01/02 16:52:46;;;;;;;4.07;3.15;;;;;;;8.57;76.36;100723.28;10347625;28;20894;-77
2023/01/02 16:57:51;;;;;;;4.82;3.08;;;;;;;8.55;76.65;100739.44;10336286;28;20441;-77
2023/01/02 17:02:54;;;;;;;6.22;3.50;;;;;;;8.46;77.45;100748.09;10359679;28;20115;-76
2023/01/02 17:07:57;;;;;;;6.63;4.43;;;;;;;8.31;78.65;100762.44;10330499;28;20132;-77
2023/01/02 17:13:01;;;;;;;7.55;4.80;;;;;;;8.08;80.07;100774.66;10355192;28;20045;-77
2023/01/02 17:18:04;;;;;;;7.13;4.97;;;;;;;8.21;78.68;100780.09;10352134;28;20065;-77
2023/01/02 17:23:07;;;;;;;6.13;4.78;;;;;;;7.94;79.37;100788.91;10340221;28;20057;-77
2023/01/02 17:28:12;;;;;;;6.72;5.25;;;;;;;7.97;79.42;100794.06;10377355;28;20092;-77
2023/01/02 17:33:15;;;;;;;8.75;3.95;;;;;;;8.09;78.02;100795.09;10360329;28;20053;-76
2023/01/02 17:38:18;;;;;;;5.93;4.15;;;;;;;7.93;78.15;100805.94;10368425;28;20049;-77
2023/01/02 17:43:22;;;;;;;6.65;4.90;;;;;;;8.06;77.46;100795.28;10370887;28;20499;-77
2023/01/02 17:48:25;;;;;;;9.75;6.00;;;;;;;7.89;77.97;100807.06;10353977;28;20041;-77
2023/01/02 17:53:28;;;;;;;11.43;6.50;;;;;;;8.23;76.88;100803.13;10372996;28;20192;-77
2023/01/02 17:58:32;;;;;;;12.20;8.25;;;;;;;8.29;77.30;100809.88;10365845;28;20166;-78
2023/01/02 18:03:36;;;;;;;15.43;10.07;;;;;;;8.06;78.47;100820.22;10366276;28;20470;-78
2023/01/02 18:08:39;;;;;;;15.13;9.52;;;;;;;8.07;78.31;100821.09;10367674;28;20171;-77
2023/01/02 18:13:46;;;;;;;16.52;10.50;;;;;;;8.21;77.78;100814.88;10350598;28;20132;-77
2023/01/02 18:18:52;;;;;;;19.17;9.93;;;;;;;8.07;78.86;100821.09;10362062;28;20042;-77
2023/01/02 18:23:58;;;;;;;17.15;9.55;;;;;;;8.16;78.00;100824.03;10362084;28;20050;-76
2023/01/02 18:29:04;;;;;;;17.05;9.40;;;;;;;7.91;79.20;100838.13;10343509;28;20417;-77
2023/01/02 18:34:17;;;;;;;19.70;12.35;;;;;;;7.98;79.51;100859.13;10359840;28;20045;-78
2023/01/02 18:39:42;;;;;;;19.15;12.80;;;;;;;7.89;80.70;100865.91;10347811;28;20038;-76
2023/01/02 18:44:47;;;;;;;25.92;14.13;;;;;;;7.97;82.80;100882.34;10350210;28;20777;-76
2023/01/02 18:49:50;;;;;;;26.30;12.55;;;;;;;6.98;89.88;100894.56;10350010;28;20053;-77
2023/01/02 18:54:58;;;;;;;25.55;13.73;;;;;;;7.09;91.51;100891.25;10376097;28;20136;-78
2023/01/02 19:00:19;;;;;;;28.85;15.50;;;;;;;7.17;91.31;100878.31;10376347;28;21219;-80
2023/01/02 19:05:25;;;;;;;22.88;13.70;;;;;;;6.80;92.87;100880.41;10364838;28;20060;-81
2023/01/02 19:10:33;;;;;;;18.85;11.40;;;;;;;6.73;92.92;100895.91;10389963;28;20092;-80
2023/01/02 19:15:43;;;;;;;21.00;10.90;;;;;;;6.70;91.28;100914.78;10386637;28;20054;-78
2023/01/02 19:20:49;;;;;;;20.67;8.90;;;;;;;6.28;92.61;100916.25;10372335;28;20045;-78
2023/01/02 19:25:52;;;;;;;19.90;10.25;;;;;;;6.42;93.21;100919.94;10382943;28;20053;-78
2023/01/02 19:30:57;;;;;;;19.80;9.85;;;;;;;6.37;91.93;100926.41;10411438;28;20050;-77
2023/01/02 19:36:02;;;;;;;13.18;8.23;;;;;;;6.37;92.60;100946.88;10368466;28;20212;-79
2023/01/02 19:41:05;;;;;;;12.60;7.28;;;;;;;6.30;92.39;100945.47;10371596;28;20033;-79
2023/01/02 19:46:09;;;;;;;21.92;11.35;;;;;;;6.60;91.69;100953.63;10364648;28;20088;-81
2023/01/02 19:51:12;;;;;;;20.75;11.32;;;;;;;6.78;90.14;100975.78;10377341;28;20100;-80
2023/01/02 19:56:15;;;;;;;18.30;11.57;;;;;;;6.62;91.27;100981.94;10363017;28;20060;-80
2023/01/02 20:01:20;;;;;;;23.58;14.23;;;;;;;6.91;90.55;100992.00;10355670;28;20117;-78
2023/01/02 20:06:24;;;;;;;22.98;13.48;;;;;;;6.61;91.54;100995.41;10350653;28;20063;-79
2023/01/02 20:16:49;;;;;;;19.15;10.85;;;;;;;7.04;88.23;101015.25;10365889;28;20050;-78
2023/01/02 20:21:53;;;;;;;18.85;8.98;;;;;;;6.72;88.63;101024.16;10364012;28;20105;-79
2023/01/02 20:26:57;;;;;;;18.02;8.93;;;;;;;6.72;88.71;101035.72;10362761;28;20050;-78
2023/01/02 20:32:01;;;;;;;17.92;9.50;;;;;;;6.95;87.82;101028.28;10377718;28;20168;-77
2023/01/02 20:37:04;;;;;;;16.17;9.77;;;;;;;6.66;88.25;101038.69;10365487;28;20046;-78
2023/01/02 20:42:07;;;;;;;15.13;8.88;;;;;;;6.57;88.43;101055.22;10362289;28;20190;-77
2023/01/02 20:47:17;;;;;;;15.25;10.25;;;;;;;6.45;88.56;101053.22;10368954;28;20054;-78
2023/01/02 20:52:20;;;;;;;16.58;9.60;;;;;;;6.72;87.28;101075.78;10368827;28;21205;-79
2023/01/02 20:57:23;;;;;;;19.38;10.85;;;;;;;6.74;87.71;101073.00;10366261;28;20053;-78
2023/01/02 21:02:27;;;;;;;18.10;12.23;;;;;;;6.99;87.04;101083.25;10385280;28;20099;-77
2023/01/02 21:07:30;;;;;;;23.02;11.57;;;;;;;6.66;88.72;101096.59;10388002;28;20054;-78
2023/01/02 21:17:55;;;;;;;23.67;13.18;;;;;;;6.58;88.13;101113.91;10369874;28;20068;-77
2023/01/02 21:22:58;;;;;;;24.05;13.50;;;;;;;6.78;88.41;101117.31;10350970;28;20153;-77
2023/01/02 21:28:01;;;;;;;24.55;14.70;;;;;;;6.65;88.58;101126.91;10362453;28;20050;-76
2023/01/02 21:33:05;;;;;;;20.05;11.65;;;;;;;6.26;89.50;101133.38;10361236;28;20052;-77
2023/01/02 21:38:09;;;;;;;32.33;17.60;;;;;;;7.00;87.21;101138.41;10350871;28;21376;-76
2023/01/02 21:43:12;;;;;;;26.90;16.23;;;;;;;7.10;86.22;101130.75;10360060;28;20065;-78
2023/01/02 21:48:16;;;;;;;26.23;15.75;;;;;;;6.99;86.45;101131.31;10363057;28;20050;-77
2023/01/02 21:53:19;;;;;;;28.45;17.15;;;;;;;6.92;86.67;101141.50;10374958;28;20045;-78
2023/01/02 21:58:22;;;;;;;27.05;17.52;;;;;;;6.73;87.41;101151.41;10357610;28;20048;-78
2023/01/02 22:03:26;;;;;;;26.75;16.75;;;;;;;6.68;87.17;101148.97;10366969;28;20124;-78
2023/01/02 22:08:29;;;;;;;19.20;11.27;;;;;;;6.61;87.19;101164.44;10372733;28;21659;-78
2023/01/02 22:13:32;;;;;;;28.92;15.98;;;;;;;6.64;87.11;101168.78;10380628;28;20136;-78
2023/01/02 22:18:36;;;;;;;24.02;15.20;;;;;;;6.56;87.18;101187.84;10399078;28;20104;-79
2023/01/02 22:23:40;;;;;;;21.13;10.90;;;;;;;6.27;87.23;101188.47;10415688;28;20038;-77
2023/01/02 22:28:43;;;;;;;24.30;13.65;;;;;;;6.58;86.68;101193.97;10400281;28;20045;-78
2023/01/02 22:33:47;;;;;;;24.50;13.68;;;;;;;6.48;86.97;101207.88;10412887;28;20045;-78
2023/01/02 22:38:50;;;;;;;22.80;12.57;;;;;;;6.51;85.49;101207.72;10388117;28;20045;-77
2023/01/02 22:44:16;;;;;;;25.40;14.25;;;;;;;6.56;84.59;101213.69;10393392;28;20092;-77
2023/01/02 22:49:24;;;;;;;22.20;12.85;;;;;;;6.50;84.59;101216.66;10393889;28;20041;-77
2023/01/02 22:54:27;;;;;;;21.83;11.55;;;;;;;6.49;84.30;101234.47;10426346;28;20049;-77
2023/01/02 22:59:29;;;;;;;20.60;11.70;;;;;;;6.69;83.41;101233.47;10390691;28;20087;-78
2023/01/02 23:04:34;;;;;;;20.02;12.77;;;;;;;6.72;83.49;101243.13;10398626;28;20069;-78
2023/01/02 23:09:36;;;;;;;23.40;14.77;;;;;;;6.90;83.74;101254.69;10376314;28;20100;-77
2023/01/02 23:14:39;;;;;;;24.88;13.27;;;;;;;6.79;83.54;101255.22;10390502;28;20041;-77
2023/01/02 23:19:43;;;;;;;24.95;12.95;;;;;;;6.74;83.71;101265.28;10374248;28;20088;-79
2023/01/02 23:24:46;;;;;;;24.58;13.30;;;;;;;7.00;82.85;101272.84;10389676;28;20112;-77
2023/01/02 23:29:49;;;;;;;22.70;13.07;;;;;;;6.80;83.19;101275.63;10408537;28;20056;-78
2023/01/02 23:34:54;;;;;;;21.83;11.65;;;;;;;6.55;83.92;101273.34;10381355;28;20046;-78
2023/01/02 23:39:57;;;;;;;22.15;9.88;;;;;;;6.18;83.72;101283.16;10397533;28;20050;-77
2023/01/02 23:45:00;;;;;;;17.42;11.63;;;;;;;6.33;83.38;101295.75;10400406;28;20114;-78
2023/01/02 23:50:05;;;;;;;18.50;11.75;;;;;;;6.12;83.98;101305.69;10377217;28;20115;-77
2023/01/02 23:55:09;;;;;;;17.73;10.82;;;;;;;6.20;83.45;101318.66;10399818;28;20054;-77
